createdAt,value
2022-12-04T00:08:36.640Z,70
2022-12-04T00:18:44.885Z,72
2022-12-04T00:28:53.196Z,73
2022-12-04T00:39:01.455Z,73
2022-12-04T00:49:09.780Z,72
2022-12-04T00:59:17.911Z,71
2022-12-04T01:09:26.201Z,73
2022-12-04T01:19:34.379Z,73
2022-12-04T01:29:42.439Z,74
2022-12-04T01:39:50.623Z,73
2022-12-04T01:49:58.315Z,72
2022-12-04T02:00:06.309Z,71
2022-12-04T02:10:14.549Z,71
2022-12-04T02:20:23.178Z,74
2022-12-04T02:30:31.482Z,78
2022-12-04T02:40:39.594Z,79
2022-12-04T02:50:48.020Z,78
2022-12-04T03:00:57.523Z,78
2022-12-04T03:11:05.758Z,78
2022-12-04T03:21:14.105Z,78
2022-12-04T03:31:22.365Z,78
2022-12-04T03:41:30.627Z,79
2022-12-04T03:51:38.884Z,79
2022-12-04T04:01:47.204Z,78
2022-12-04T04:11:55.263Z,78
2022-12-04T04:22:03.376Z,79
2022-12-04T04:32:11.557Z,78
2022-12-04T04:42:19.872Z,78
2022-12-04T04:52:28.128Z,77
2022-12-04T05:02:36.750Z,77
2022-12-04T05:12:47.151Z,76
2022-12-04T05:22:55.509Z,75
2022-12-04T05:33:03.741Z,74
2022-12-04T05:43:11.914Z,74
2022-12-04T05:53:20.069Z,73
2022-12-04T06:03:28.494Z,72
2022-12-04T06:13:36.558Z,73
2022-12-04T06:23:44.780Z,73
2022-12-04T06:33:53.139Z,73
2022-12-04T06:44:01.309Z,73
2022-12-04T06:54:10.808Z,74
2022-12-04T07:04:18.806Z,74
2022-12-04T07:14:27.141Z,74
2022-12-04T07:24:35.695Z,74
2022-12-04T07:34:44.219Z,73
2022-12-04T07:44:52.377Z,73
2022-12-04T07:55:01.902Z,72
2022-12-04T08:05:10.438Z,72
2022-12-04T08:15:18.685Z,72
2022-12-04T08:25:26.889Z,71
2022-12-04T08:35:35.296Z,71
2022-12-04T08:45:43.764Z,71
2022-12-04T08:55:51.713Z,70
2022-12-04T09:05:59.999Z,69
2022-12-04T09:16:08.458Z,70
2022-12-04T09:26:16.568Z,70
2022-12-04T09:36:25.097Z,69
2022-12-04T09:46:33.552Z,69
2022-12-04T09:56:41.840Z,68
2022-12-04T10:06:50.070Z,67
2022-12-04T10:16:58.481Z,66
2022-12-04T10:27:06.889Z,64
2022-12-04T10:37:15.759Z,64
2022-12-04T10:47:24.583Z,64
2022-12-04T10:57:32.885Z,65
2022-12-04T11:07:41.409Z,65
2022-12-04T11:17:49.918Z,65
2022-12-04T11:27:58.288Z,65
2022-12-04T11:38:06.696Z,67
2022-12-04T11:48:15.565Z,67
2022-12-04T11:58:23.822Z,65
2022-12-04T12:08:32.643Z,65
2022-12-04T12:18:41.055Z,64
2022-12-04T12:28:49.512Z,63
2022-12-04T12:38:57.771Z,59
2022-12-04T12:49:08.500Z,57
2022-12-04T13:09:09.435Z,53
2022-12-04T13:29:19.211Z,57
2022-12-04T13:39:17.882Z,56
2022-12-04T13:49:19.627Z,57
2022-12-04T13:59:29.300Z,55
2022-12-04T14:19:34.463Z,58
2022-12-04T14:29:38.634Z,55
2022-12-04T14:39:41.407Z,46
2022-12-04T14:59:42.581Z,43
2022-12-04T15:09:50.796Z,43
2022-12-04T15:19:59.409Z,43
2022-12-04T15:30:09.070Z,42
2022-12-04T15:40:24.926Z,42
2022-12-04T15:50:30.190Z,40
2022-12-04T16:00:33.849Z,40
2022-12-04T16:20:37.685Z,41
2022-12-04T16:30:47.979Z,41
2022-12-04T16:40:57.780Z,42
2022-12-04T16:50:57.960Z,42
2022-12-04T17:00:57.160Z,42
2022-12-04T17:11:09.487Z,43
2022-12-04T17:21:21.908Z,42
2022-12-04T17:31:17.864Z,42
2022-12-04T17:51:44.241Z,42
2022-12-04T18:01:38.790Z,43
2022-12-04T18:11:50.015Z,44
2022-12-04T18:21:59.215Z,44
2022-12-04T18:31:54.445Z,44
2022-12-04T18:41:53.808Z,45
2022-12-04T18:52:02.518Z,47
2022-12-04T19:02:11.155Z,49
2022-12-04T19:12:19.679Z,48
2022-12-04T19:22:30.335Z,48
2022-12-04T19:32:39.515Z,50
2022-12-04T19:43:02.920Z,51
2022-12-04T19:53:06.035Z,53
2022-12-04T20:13:01.564Z,54
2022-12-04T20:23:09.989Z,54
2022-12-04T20:33:21.509Z,55
2022-12-04T20:43:23.900Z,56
2022-12-04T20:53:33.411Z,57
2022-12-04T21:03:42.228Z,58
2022-12-04T21:13:50.747Z,58
2022-12-04T21:23:59.328Z,59
2022-12-04T21:34:08.215Z,60
2022-12-04T21:44:16.888Z,61
2022-12-04T21:54:25.393Z,62
2022-12-04T22:04:35.003Z,62
2022-12-04T22:14:43.575Z,62
2022-12-04T22:24:52.097Z,62
2022-12-04T22:35:00.297Z,62
2022-12-04T22:45:09.774Z,62
2022-12-04T22:55:18.476Z,62
2022-12-04T23:05:26.820Z,63
2022-12-04T23:15:35.513Z,63
2022-12-04T23:25:44.050Z,63
2022-12-04T23:35:52.734Z,64
2022-12-04T23:46:03.403Z,64
2022-12-04T23:56:08.888Z,64
